createdAt,value
2023-02-08T00:00:29.353Z,857.10
2023-02-08T00:02:57.427Z,809.67
2023-02-08T00:05:25.443Z,999.90
2023-02-08T00:07:53.492Z,978.83
2023-02-08T00:10:21.639Z,999.03
2023-02-08T00:12:52.235Z,992.70
2023-02-08T00:15:20.427Z,918.60
2023-02-08T00:17:48.468Z,991.50
2023-02-08T00:20:16.502Z,985.43
2023-02-08T00:22:44.595Z,945.57
2023-02-08T00:25:12.684Z,958.83
2023-02-08T00:27:40.717Z,924.43
2023-02-08T00:30:11.348Z,999.90
2023-02-08T00:32:39.384Z,980.00
2023-02-08T00:35:08.045Z,860.27
2023-02-08T00:37:36.046Z,991.70
2023-02-08T00:40:05.841Z,847.47
2023-02-08T00:42:34.084Z,852.83
2023-02-08T00:45:02.325Z,999.90
2023-02-08T00:47:31.835Z,935.53
2023-02-08T00:49:59.947Z,989.90
2023-02-08T00:52:29.349Z,999.90
2023-02-08T00:54:57.496Z,981.43
2023-02-08T00:57:25.527Z,996.50
2023-02-08T00:59:53.530Z,999.90
2023-02-08T01:02:21.567Z,926.57
2023-02-08T01:04:51.130Z,999.90
2023-02-08T01:07:19.237Z,990.93
2023-02-08T01:09:47.277Z,999.90
2023-02-08T01:12:15.284Z,999.90
2023-02-08T01:14:43.320Z,984.80
2023-02-08T01:17:11.510Z,999.90
2023-02-08T01:19:41.592Z,999.90
2023-02-08T01:22:11.888Z,999.90
2023-02-08T01:24:39.916Z,999.90
2023-02-08T01:27:07.931Z,999.90
2023-02-08T01:29:36.031Z,999.90
2023-02-08T01:32:04.081Z,999.90
2023-02-08T01:34:32.060Z,999.90
2023-02-08T01:37:00.078Z,999.90
2023-02-08T01:39:29.528Z,999.90
2023-02-08T01:41:57.539Z,883.90
2023-02-08T01:45:02.674Z,999.90
2023-02-08T01:47:31.250Z,999.90
2023-02-08T01:49:59.414Z,999.90
2023-02-08T01:52:30.174Z,999.90
2023-02-08T01:55:03.333Z,999.90
2023-02-08T01:57:31.809Z,999.90
2023-02-08T02:00:04.347Z,999.90
2023-02-08T02:02:32.606Z,999.90
2023-02-08T02:05:00.855Z,999.90
2023-02-08T02:07:32.104Z,980.33
2023-02-08T02:10:08.132Z,997.50
2023-02-08T02:12:38.440Z,939.20
2023-02-08T02:15:07.560Z,999.90
2023-02-08T02:17:36.740Z,999.90
2023-02-08T02:20:10.127Z,999.90
2023-02-08T02:23:21.581Z,999.90
2023-02-08T02:26:24.525Z,999.07
2023-02-08T02:29:32.842Z,999.90
2023-02-08T02:32:32.636Z,993.77
2023-02-08T02:35:07.101Z,907.50
2023-02-08T02:37:49.578Z,999.90
2023-02-08T02:40:22.908Z,996.00
2023-02-08T02:43:18.553Z,999.90
2023-02-08T02:45:53.779Z,999.90
2023-02-08T02:48:31.085Z,999.90
2023-02-08T02:51:04.055Z,928.80
2023-02-08T02:53:38.517Z,995.77
2023-02-08T02:56:13.077Z,998.30
2023-02-08T02:58:42.080Z,999.73
2023-02-08T03:01:10.159Z,999.90
2023-02-08T03:03:40.224Z,922.87
2023-02-08T03:06:13.260Z,909.60
2023-02-08T03:09:13.348Z,999.90
2023-02-08T03:11:48.675Z,999.90
2023-02-08T03:14:28.643Z,999.90
2023-02-08T03:17:16.586Z,999.90
2023-02-08T03:19:54.413Z,995.90
2023-02-08T03:22:29.575Z,999.90
2023-02-08T03:25:02.971Z,999.90
2023-02-08T03:27:35.320Z,999.90
2023-02-08T03:30:09.560Z,999.90
2023-02-08T03:32:41.847Z,970.37
2023-02-08T03:35:16.830Z,934.13
2023-02-08T03:37:51.075Z,999.90
2023-02-08T03:40:25.486Z,970.70
2023-02-08T03:42:57.496Z,915.00
2023-02-08T03:45:29.948Z,999.90
2023-02-08T03:48:01.420Z,877.33
2023-02-08T03:50:35.934Z,999.90
2023-02-08T03:53:05.104Z,999.90
2023-02-08T03:55:36.649Z,994.40
2023-02-08T03:58:11.914Z,999.90
2023-02-08T04:00:43.597Z,999.90
2023-02-08T04:03:17.075Z,999.90
2023-02-08T04:05:46.696Z,999.90
2023-02-08T04:08:14.905Z,991.50
2023-02-08T04:10:43.249Z,935.50
2023-02-08T04:13:11.314Z,976.60
2023-02-08T04:15:39.463Z,938.77
2023-02-08T04:18:07.652Z,869.93
2023-02-08T04:20:35.682Z,897.10
2023-02-08T04:23:05.077Z,944.60
2023-02-08T04:25:33.105Z,999.90
2023-02-08T04:28:01.142Z,955.73
2023-02-08T04:30:29.213Z,986.17
2023-02-08T04:32:58.317Z,971.77
2023-02-08T04:35:26.382Z,891.73
2023-02-08T04:37:54.343Z,867.67
2023-02-08T04:40:23.772Z,942.03
2023-02-08T04:42:51.764Z,999.90
2023-02-08T04:45:19.827Z,999.90
2023-02-08T04:47:47.818Z,971.47
2023-02-08T04:50:15.915Z,895.17
2023-02-08T04:52:43.947Z,995.30
2023-02-08T04:55:12.023Z,893.07
2023-02-08T04:57:41.403Z,999.90
2023-02-08T05:00:10.558Z,863.10
2023-02-08T05:02:38.561Z,808.67
2023-02-08T05:05:07.165Z,999.90
2023-02-08T05:07:35.218Z,999.90
2023-02-08T05:10:03.329Z,999.90
2023-02-08T05:12:31.321Z,999.90
2023-02-08T05:15:00.716Z,792.07
2023-02-08T05:17:28.741Z,898.10
2023-02-08T05:19:57.191Z,983.73
2023-02-08T05:22:25.146Z,968.43
2023-02-08T05:24:53.180Z,999.90
2023-02-08T05:27:21.180Z,882.90
2023-02-08T05:29:49.222Z,852.93
2023-02-08T05:32:18.752Z,982.57
2023-02-08T05:34:46.859Z,913.73
2023-02-08T05:37:15.274Z,945.13
2023-02-08T05:39:43.337Z,933.67
2023-02-08T05:42:11.318Z,999.90
2023-02-08T05:44:39.627Z,861.27
2023-02-08T05:47:07.711Z,915.30
2023-02-08T05:49:37.141Z,949.47
2023-02-08T05:52:05.416Z,971.37
2023-02-08T05:54:33.440Z,869.80
2023-02-08T05:57:01.472Z,982.47
2023-02-08T05:59:29.937Z,897.30
2023-02-08T06:01:57.945Z,967.97
2023-02-08T06:04:26.013Z,888.90
2023-02-08T06:06:55.439Z,873.90
2023-02-08T06:09:23.636Z,903.80
2023-02-08T06:11:51.695Z,932.30
2023-02-08T06:14:19.954Z,994.03
2023-02-08T06:16:48.162Z,923.87
2023-02-08T06:19:16.517Z,999.90
2023-02-08T06:21:44.550Z,999.90
2023-02-08T06:24:13.914Z,949.33
2023-02-08T06:26:41.932Z,929.77
2023-02-08T06:29:09.951Z,976.93
2023-02-08T06:31:38.135Z,999.90
2023-02-08T06:34:06.221Z,999.90
2023-02-08T06:36:34.254Z,971.30
2023-02-08T06:39:02.214Z,999.90
2023-02-08T06:41:31.608Z,999.90
2023-02-08T06:44:01.392Z,999.90
2023-02-08T06:46:30.342Z,965.77
2023-02-08T06:49:00.318Z,936.97
2023-02-08T06:51:28.507Z,847.40
2023-02-08T06:53:56.509Z,999.90
2023-02-08T06:56:24.525Z,953.13
2023-02-08T06:58:53.891Z,999.90
2023-02-08T07:01:21.936Z,975.83
2023-02-08T07:03:49.935Z,991.33
2023-02-08T07:06:20.057Z,988.50
2023-02-08T07:08:49.015Z,999.90
2023-02-08T07:11:19.725Z,999.90
2023-02-08T07:13:48.812Z,999.90
2023-02-08T07:16:19.287Z,998.20
2023-02-08T07:18:47.518Z,999.90
2023-02-08T07:21:15.549Z,948.13
2023-02-08T07:23:43.748Z,999.90
2023-02-08T07:26:14.449Z,999.90
2023-02-08T07:28:43.156Z,999.90
2023-02-08T07:31:13.333Z,966.57
2023-02-08T07:33:43.292Z,898.03
2023-02-08T07:36:11.961Z,810.43
2023-02-08T07:38:40.492Z,850.40
2023-02-08T07:41:12.088Z,925.17
2023-02-08T07:43:41.544Z,881.00
2023-02-08T07:46:10.720Z,879.87
2023-02-08T07:48:40.339Z,908.77
2023-02-08T07:51:10.514Z,990.73
2023-02-08T07:53:38.988Z,999.90
2023-02-08T07:56:07.900Z,998.73
2023-02-08T07:58:35.889Z,999.90
2023-02-08T08:01:16.090Z,929.27
2023-02-08T08:03:47.950Z,984.30
2023-02-08T08:06:17.353Z,943.37
2023-02-08T08:08:47.551Z,999.90
2023-02-08T08:11:16.075Z,982.53
2023-02-08T08:13:44.352Z,932.67
2023-02-08T08:16:12.753Z,859.90
2023-02-08T08:18:40.967Z,756.53
2023-02-08T08:21:09.198Z,773.00
2023-02-08T08:23:39.058Z,830.87
2023-02-08T08:26:11.465Z,676.70
2023-02-08T08:28:39.511Z,522.00
2023-02-08T08:31:11.626Z,736.80
2023-02-08T08:33:39.972Z,451.00
2023-02-08T08:36:08.894Z,356.37
2023-02-08T08:38:38.712Z,323.93
2023-02-08T08:41:09.290Z,488.57
2023-02-08T08:43:37.375Z,322.63
2023-02-08T08:46:07.121Z,591.93
2023-02-08T08:48:35.630Z,827.30
2023-02-08T08:51:04.191Z,331.50
2023-02-08T08:53:32.231Z,537.97
2023-02-08T08:56:01.631Z,324.07
2023-02-08T08:58:29.625Z,190.90
2023-02-08T09:00:58.479Z,502.43
2023-02-08T09:03:26.687Z,313.90
2023-02-08T09:05:54.770Z,427.70
2023-02-08T09:08:22.853Z,479.97
2023-02-08T09:10:51.219Z,564.63
2023-02-08T09:13:21.842Z,386.40
2023-02-08T09:15:50.274Z,239.13
2023-02-08T09:18:18.690Z,430.20
2023-02-08T09:20:46.914Z,601.70
2023-02-08T09:23:15.225Z,646.33
2023-02-08T09:25:43.279Z,905.33
2023-02-08T09:28:11.347Z,414.30
2023-02-08T09:30:41.005Z,169.23
2023-02-08T09:33:09.283Z,428.97
2023-02-08T09:35:37.269Z,415.27
2023-02-08T09:38:05.635Z,670.47
2023-02-08T09:40:44.227Z,642.23
2023-02-08T09:43:17.276Z,580.30
2023-02-08T09:45:59.911Z,493.80
2023-02-08T09:48:32.556Z,671.80
2023-02-08T09:51:05.870Z,742.90
2023-02-08T09:53:37.878Z,841.43
2023-02-08T09:56:10.639Z,904.27
2023-02-08T09:58:41.382Z,999.90
2023-02-08T10:01:19.268Z,881.20
2023-02-08T10:03:48.117Z,997.27
2023-02-08T10:06:17.939Z,472.13
2023-02-08T10:08:48.909Z,645.63
2023-02-08T10:11:34.722Z,694.53
2023-02-08T10:14:20.524Z,659.97
2023-02-08T10:17:01.959Z,599.70
2023-02-08T10:19:46.327Z,608.43
2023-02-08T10:22:27.200Z,606.97
2023-02-08T10:25:08.795Z,752.77
2023-02-08T10:27:47.855Z,601.33
2023-02-08T10:30:24.198Z,617.50
2023-02-08T10:33:01.890Z,516.40
2023-02-08T10:35:37.415Z,333.57
2023-02-08T10:38:37.220Z,635.40
2023-02-08T10:41:18.688Z,808.53
2023-02-08T10:43:51.006Z,679.27
2023-02-08T10:46:27.385Z,598.23
2023-02-08T10:49:09.318Z,658.67
2023-02-08T10:51:38.435Z,750.33
2023-02-08T10:54:06.925Z,850.07
2023-02-08T10:56:42.006Z,809.07
2023-02-08T10:59:18.170Z,667.10
2023-02-08T11:01:48.224Z,743.40
2023-02-08T11:04:18.708Z,796.87
2023-02-08T11:06:48.773Z,999.90
2023-02-08T11:09:25.706Z,999.90
2023-02-08T11:11:54.534Z,972.87
2023-02-08T11:14:37.888Z,999.90
2023-02-08T11:17:28.209Z,999.90
2023-02-08T11:19:59.401Z,999.90
2023-02-08T11:22:31.430Z,999.90
2023-02-08T11:25:01.581Z,999.90
2023-02-08T11:27:34.765Z,999.90
2023-02-08T11:30:23.301Z,999.90
2023-02-08T11:33:19.127Z,999.90
2023-02-08T11:36:08.369Z,999.90
2023-02-08T11:38:37.965Z,999.90
2023-02-08T11:41:14.686Z,999.90
2023-02-08T11:43:43.619Z,999.90
2023-02-08T11:46:12.386Z,999.90
2023-02-08T11:48:44.772Z,999.90
2023-02-08T11:51:26.293Z,999.90
2023-02-08T11:53:55.155Z,990.80
2023-02-08T11:56:25.056Z,999.90
2023-02-08T11:59:06.806Z,999.90
2023-02-08T12:01:37.302Z,999.90
2023-02-08T12:04:08.890Z,999.90
2023-02-08T12:07:06.404Z,999.90
2023-02-08T12:09:51.569Z,999.90
2023-02-08T12:12:26.303Z,999.90
2023-02-08T12:15:03.928Z,999.90
2023-02-08T12:17:56.351Z,999.90
2023-02-08T12:20:38.510Z,999.90
2023-02-08T12:23:24.940Z,999.90
2023-02-08T12:26:01.753Z,975.30
2023-02-08T12:28:44.549Z,999.90
2023-02-08T12:31:24.211Z,999.90
2023-02-08T12:34:02.897Z,999.90
2023-02-08T12:36:43.305Z,999.90
2023-02-08T12:40:02.555Z,999.90
2023-02-08T12:42:41.320Z,999.90
2023-02-08T12:45:28.197Z,999.90
2023-02-08T12:48:10.826Z,999.90
2023-02-08T12:50:47.935Z,990.37
2023-02-08T12:53:22.595Z,999.90
2023-02-08T12:55:52.671Z,999.90
2023-02-08T12:58:29.552Z,999.90
2023-02-08T13:01:02.301Z,999.90
2023-02-08T13:03:39.534Z,999.90
2023-02-08T13:06:13.512Z,999.90
2023-02-08T13:08:47.486Z,999.90
2023-02-08T13:11:21.946Z,999.90
2023-02-08T13:13:57.890Z,999.90
2023-02-08T13:16:30.097Z,996.13
2023-02-08T13:19:19.614Z,999.90
2023-02-08T13:21:47.834Z,999.90
2023-02-08T13:24:23.893Z,999.90
2023-02-08T13:26:53.484Z,999.90
2023-02-08T13:29:23.529Z,999.90
2023-02-08T13:31:55.322Z,999.90
2023-02-08T13:34:32.482Z,999.90
2023-02-08T13:37:08.864Z,999.90
2023-02-08T13:39:43.053Z,999.90
2023-02-08T13:42:23.610Z,999.90
2023-02-08T13:44:55.075Z,999.90
2023-02-08T13:47:26.845Z,999.90
2023-02-08T13:49:58.556Z,999.90
2023-02-08T13:52:49.466Z,999.90
2023-02-08T13:55:56.384Z,999.90
2023-02-08T13:58:53.899Z,999.90
2023-02-08T14:01:24.303Z,999.90
2023-02-08T14:04:29.886Z,999.90
2023-02-08T14:07:02.132Z,999.90
2023-02-08T14:09:40.651Z,999.90
2023-02-08T14:12:17.204Z,999.90
2023-02-08T14:15:07.023Z,999.90
2023-02-08T14:17:35.662Z,999.90
2023-02-08T14:20:06.616Z,999.90
2023-02-08T14:22:38.220Z,975.50
2023-02-08T14:25:08.972Z,999.90
2023-02-08T14:27:40.699Z,999.90
2023-02-08T14:30:25.273Z,999.90
2023-02-08T14:32:55.875Z,999.90
2023-02-08T14:35:26.105Z,999.90
2023-02-08T14:38:33.793Z,999.90
2023-02-08T14:41:03.138Z,999.90
2023-02-08T14:43:36.338Z,999.90
2023-02-08T14:46:42.072Z,999.90
2023-02-08T14:49:14.496Z,999.90
2023-02-08T14:51:46.567Z,999.90
2023-02-08T14:54:23.076Z,999.90
2023-02-08T14:56:57.724Z,999.90
2023-02-08T14:59:30.567Z,999.90
2023-02-08T15:02:01.361Z,999.90
2023-02-08T15:04:31.725Z,999.90
2023-02-08T15:07:26.475Z,999.90
2023-02-08T15:09:55.378Z,999.90
2023-02-08T15:12:26.828Z,999.90
2023-02-08T15:14:56.293Z,999.90
2023-02-08T15:17:33.484Z,999.90
2023-02-08T15:20:06.551Z,999.90
2023-02-08T15:22:37.435Z,999.90
2023-02-08T15:25:22.598Z,999.90
2023-02-08T15:27:52.829Z,999.90
2023-02-08T15:30:29.543Z,999.90
2023-02-08T15:32:58.484Z,999.90
2023-02-08T15:35:29.812Z,999.90
2023-02-08T15:37:59.020Z,999.90
2023-02-08T15:40:29.192Z,999.90
2023-02-08T15:43:03.995Z,999.90
2023-02-08T15:45:32.002Z,999.90
2023-02-08T15:48:00.635Z,999.90
2023-02-08T15:50:33.295Z,999.90
2023-02-08T15:53:03.784Z,999.90
2023-02-08T15:55:40.512Z,999.90
2023-02-08T15:58:17.215Z,999.90
2023-02-08T16:00:47.422Z,999.90
2023-02-08T16:03:19.997Z,999.90
2023-02-08T16:05:54.111Z,999.90
2023-02-08T16:08:26.234Z,999.90
2023-02-08T16:10:58.280Z,999.90
2023-02-08T16:13:29.804Z,999.90
2023-02-08T16:16:14.605Z,999.90
2023-02-08T16:18:46.056Z,999.90
2023-02-08T16:21:39.687Z,999.90
2023-02-08T16:24:21.380Z,999.90
2023-02-08T16:27:02.386Z,999.90
2023-02-08T16:29:32.325Z,999.90
2023-02-08T16:32:11.941Z,999.90
2023-02-08T16:34:41.736Z,999.90
2023-02-08T16:37:26.799Z,943.03
2023-02-08T16:39:56.225Z,999.90
2023-02-08T16:42:28.581Z,915.10
2023-02-08T16:45:26.034Z,872.27
2023-02-08T16:47:56.911Z,999.90
2023-02-08T16:50:28.460Z,999.90
2023-02-08T16:53:01.439Z,980.83
2023-02-08T16:55:32.784Z,958.57
2023-02-08T16:58:01.176Z,904.87
2023-02-08T17:00:31.094Z,992.00
2023-02-08T17:02:59.809Z,998.20
2023-02-08T17:05:31.419Z,887.40
2023-02-08T17:08:01.232Z,972.97
2023-02-08T17:10:31.435Z,827.53
2023-02-08T17:13:18.386Z,827.20
2023-02-08T17:15:48.591Z,924.70
2023-02-08T17:18:16.756Z,903.70
2023-02-08T17:20:45.032Z,938.33
2023-02-08T17:23:15.711Z,895.03
2023-02-08T17:25:44.456Z,977.47
2023-02-08T17:28:17.221Z,825.20
2023-02-08T17:30:46.606Z,901.83
2023-02-08T17:33:18.436Z,975.87
2023-02-08T17:35:48.019Z,831.03
2023-02-08T17:38:17.927Z,862.37
2023-02-08T17:40:46.770Z,774.70
2023-02-08T17:43:15.367Z,941.40
2023-02-08T17:45:45.008Z,919.33
2023-02-08T17:48:14.378Z,811.33
2023-02-08T17:50:45.167Z,916.67
2023-02-08T17:53:14.005Z,871.63
2023-02-08T17:55:44.695Z,999.90
2023-02-08T17:58:13.038Z,922.83
2023-02-08T18:00:41.414Z,893.30
2023-02-08T18:03:09.654Z,872.37
2023-02-08T18:05:38.102Z,831.07
2023-02-08T18:08:06.574Z,810.57
2023-02-08T18:10:34.729Z,997.80
2023-02-08T18:13:04.127Z,999.90
2023-02-08T18:15:32.313Z,938.53
2023-02-08T18:18:00.422Z,997.77
2023-02-08T18:20:28.673Z,968.40
2023-02-08T18:22:56.707Z,996.77
2023-02-08T18:25:24.750Z,794.00
2023-02-08T18:27:52.907Z,885.07
2023-02-08T18:30:22.799Z,900.07
2023-02-08T18:32:50.818Z,922.17
2023-02-08T18:35:19.033Z,900.87
2023-02-08T18:37:49.529Z,999.90
2023-02-08T18:40:18.416Z,999.90
2023-02-08T18:42:46.503Z,999.90
2023-02-08T18:45:14.620Z,812.83
2023-02-08T18:47:44.163Z,887.00
2023-02-08T18:50:12.489Z,806.83
2023-02-08T18:52:40.493Z,760.83
2023-02-08T18:55:09.005Z,750.80
2023-02-08T18:57:38.916Z,780.67
2023-02-08T19:00:07.984Z,777.27
2023-02-08T19:02:38.015Z,758.87
2023-02-08T19:05:08.985Z,711.17
2023-02-08T19:07:38.732Z,635.60
2023-02-08T19:10:07.539Z,728.50
2023-02-08T19:12:37.260Z,668.07
2023-02-08T19:15:05.947Z,512.37
2023-02-08T19:17:33.983Z,735.27
2023-02-08T19:20:02.074Z,764.87
2023-02-08T19:22:31.455Z,727.73
2023-02-08T19:24:59.477Z,466.07
2023-02-08T19:27:27.647Z,667.83
2023-02-08T19:29:56.325Z,571.03
2023-02-08T19:32:24.764Z,391.47
2023-02-08T19:34:52.783Z,768.70
2023-02-08T19:37:20.879Z,405.53
2023-02-08T19:39:50.337Z,426.80
2023-02-08T19:42:18.367Z,775.03
2023-02-08T19:44:46.394Z,587.97
2023-02-08T19:47:14.405Z,845.43
2023-02-08T19:49:42.429Z,697.50
2023-02-08T19:52:10.411Z,848.23
2023-02-08T19:54:38.435Z,950.07
2023-02-08T19:57:11.709Z,685.13
2023-02-08T19:59:39.835Z,999.90
2023-02-08T20:02:08.540Z,999.90
2023-02-08T20:04:36.634Z,796.23
2023-02-08T20:07:05.883Z,904.70
2023-02-08T20:09:33.966Z,936.10
2023-02-08T20:12:02.357Z,670.60
2023-02-08T20:14:34.579Z,939.60
2023-02-08T20:17:04.019Z,940.60
2023-02-08T20:19:32.051Z,768.70
2023-02-08T20:22:00.096Z,783.83
2023-02-08T20:24:28.489Z,877.47
2023-02-08T20:26:56.532Z,675.37
2023-02-08T20:29:25.111Z,646.47
2023-02-08T20:31:57.843Z,637.73
2023-02-08T20:34:26.030Z,510.23
2023-02-08T20:37:06.224Z,937.37
2023-02-08T20:39:35.742Z,581.97
2023-02-08T20:42:04.005Z,878.50
2023-02-08T20:44:32.001Z,955.23
2023-02-08T20:47:01.531Z,594.93
2023-02-08T20:49:32.102Z,899.10
2023-02-08T20:52:00.213Z,907.17
2023-02-08T20:54:28.197Z,847.57
2023-02-08T20:56:56.553Z,799.60
2023-02-08T20:59:24.813Z,726.37
2023-02-08T21:01:52.950Z,972.40
2023-02-08T21:04:23.476Z,838.03
2023-02-08T21:06:53.170Z,940.80
2023-02-08T21:09:21.910Z,948.00
2023-02-08T21:11:51.152Z,601.50
2023-02-08T21:14:21.295Z,826.13
2023-02-08T21:16:51.299Z,979.23
2023-02-08T21:19:20.621Z,865.00
2023-02-08T21:21:53.704Z,722.67
2023-02-08T21:24:23.891Z,907.40
2023-02-08T21:26:52.647Z,689.77
2023-02-08T21:29:21.232Z,682.07
2023-02-08T21:31:51.856Z,907.93
2023-02-08T21:34:20.737Z,897.73
2023-02-08T21:36:48.952Z,784.53
2023-02-08T21:39:18.421Z,674.50
2023-02-08T21:41:46.543Z,824.83
2023-02-08T21:44:14.561Z,656.60
2023-02-08T21:46:42.581Z,732.57
2023-02-08T21:49:28.617Z,808.57
2023-02-08T21:52:14.232Z,928.63
2023-02-08T21:54:44.474Z,865.77
2023-02-08T21:57:16.855Z,999.90
2023-02-08T21:59:45.220Z,916.23
2023-02-08T22:02:15.827Z,999.90
2023-02-08T22:05:01.580Z,842.33
2023-02-08T22:07:30.460Z,999.90
2023-02-08T22:09:59.822Z,817.37
2023-02-08T22:12:27.832Z,620.63
2023-02-08T22:14:55.854Z,810.33
2023-02-08T22:17:24.387Z,814.07
2023-02-08T22:19:52.391Z,824.77
2023-02-08T22:22:20.461Z,986.57
2023-02-08T22:24:48.464Z,649.43
2023-02-08T22:27:17.876Z,779.17
2023-02-08T22:29:45.909Z,661.33
2023-02-08T22:32:17.036Z,713.23
2023-02-08T22:34:46.061Z,715.20
2023-02-08T22:37:14.792Z,869.97
2023-02-08T22:39:43.134Z,882.40
2023-02-08T22:42:14.068Z,626.50
2023-02-08T22:44:45.373Z,942.23
2023-02-08T22:47:14.446Z,833.00
2023-02-08T22:49:42.526Z,933.10
2023-02-08T22:52:11.317Z,859.33
2023-02-08T22:54:39.368Z,999.90
2023-02-08T22:57:09.701Z,912.47
2023-02-08T22:59:39.049Z,810.67
2023-02-08T23:02:09.408Z,999.90
2023-02-08T23:04:37.881Z,818.80
2023-02-08T23:07:06.259Z,854.43
2023-02-08T23:09:34.292Z,931.30
2023-02-08T23:12:02.320Z,791.50
2023-02-08T23:14:30.327Z,982.73
2023-02-08T23:16:58.316Z,943.93
2023-02-08T23:19:27.776Z,781.10
2023-02-08T23:21:59.262Z,784.47
2023-02-08T23:24:28.074Z,875.63
2023-02-08T23:26:56.077Z,769.47
2023-02-08T23:29:24.128Z,990.70
2023-02-08T23:31:52.230Z,823.07
2023-02-08T23:34:20.476Z,984.83
2023-02-08T23:36:49.842Z,803.53
2023-02-08T23:39:17.840Z,975.67
2023-02-08T23:41:45.907Z,971.43
2023-02-08T23:44:13.903Z,969.17
2023-02-08T23:46:41.912Z,859.40
2023-02-08T23:49:09.995Z,930.80
2023-02-08T23:51:38.004Z,887.80
2023-02-08T23:54:07.857Z,999.90
2023-02-08T23:56:35.888Z,911.40
2023-02-08T23:59:08.015Z,905.73
